createdAt,value
2019-02-21T00:00:26.103Z,12.73
2019-02-21T00:02:58.079Z,12.25
2019-02-21T00:05:28.429Z,12.15
2019-02-21T00:07:59.365Z,13.45
2019-02-21T00:10:29.861Z,13.58
2019-02-21T00:13:03.942Z,12.95
2019-02-21T00:15:34.319Z,13.50
2019-02-21T00:18:16.556Z,11.35
2019-02-21T00:20:47.530Z,12.18
2019-02-21T00:23:17.900Z,12.23
2019-02-21T00:25:49.322Z,11.90
2019-02-21T00:28:19.695Z,13.03
2019-02-21T00:30:50.065Z,11.70
2019-02-21T00:33:20.430Z,12.53
2019-02-21T00:35:51.003Z,12.20
2019-02-21T00:38:21.385Z,12.98
2019-02-21T00:40:51.743Z,11.45
2019-02-21T00:43:22.081Z,13.32
2019-02-21T00:45:52.444Z,12.68
2019-02-21T00:48:22.966Z,12.63
2019-02-21T00:50:53.393Z,12.13
2019-02-21T00:53:23.760Z,12.20
2019-02-21T00:55:54.104Z,12.45
2019-02-21T00:58:24.466Z,12.58
2019-02-21T01:00:54.820Z,12.65
2019-02-21T01:03:25.149Z,12.43
2019-02-21T01:05:55.519Z,12.82
2019-02-21T01:08:25.880Z,13.38
2019-02-21T01:10:56.226Z,12.73
2019-02-21T01:13:26.579Z,12.00
2019-02-21T01:15:56.932Z,13.03
2019-02-21T01:18:27.278Z,12.70
2019-02-21T01:20:57.622Z,12.47
2019-02-21T01:23:48.817Z,12.28
2019-02-21T01:26:19.163Z,13.43
2019-02-21T01:28:49.523Z,13.22
2019-02-21T01:31:19.950Z,15.63
2019-02-21T01:33:50.334Z,13.72
2019-02-21T01:36:20.670Z,13.75
2019-02-21T01:38:51.051Z,14.47
2019-02-21T01:41:21.402Z,13.58
2019-02-21T01:43:51.843Z,13.00
2019-02-21T01:46:22.197Z,13.70
2019-02-21T01:48:52.556Z,12.25
2019-02-21T01:51:23.039Z,14.30
2019-02-21T01:53:53.412Z,14.23
2019-02-21T01:56:23.766Z,12.35
2019-02-21T01:58:54.121Z,13.38
2019-02-21T02:01:24.485Z,14.63
2019-02-21T02:03:54.918Z,13.50
2019-02-21T02:06:25.336Z,13.80
2019-02-21T02:08:55.737Z,14.63
2019-02-21T02:11:26.080Z,15.00
2019-02-21T02:13:56.505Z,15.25
2019-02-21T02:16:28.542Z,14.83
2019-02-21T02:18:58.784Z,14.07
2019-02-21T02:21:29.150Z,14.18
2019-02-21T02:23:59.486Z,13.60
2019-02-21T02:26:29.837Z,13.70
2019-02-21T02:29:02.135Z,14.75
2019-02-21T02:31:32.481Z,14.43
2019-02-21T02:34:03.830Z,15.10
2019-02-21T02:36:34.180Z,15.25
2019-02-21T02:39:05.170Z,15.85
2019-02-21T02:41:56.583Z,15.83
2019-02-21T02:44:26.947Z,17.02
2019-02-21T02:46:57.344Z,15.40
2019-02-21T02:49:27.692Z,17.12
2019-02-21T02:51:58.039Z,16.10
2019-02-21T02:54:28.404Z,16.07
2019-02-21T02:56:58.773Z,18.35
2019-02-21T02:59:40.418Z,17.70
2019-02-21T03:02:01.515Z,16.87
2019-02-21T03:04:31.944Z,17.10
2019-02-21T03:07:02.304Z,15.93
2019-02-21T03:09:33.636Z,17.77
2019-02-21T03:12:04.012Z,16.95
2019-02-21T03:14:34.352Z,16.42
2019-02-21T03:17:04.723Z,17.55
2019-02-21T03:19:35.057Z,17.23
2019-02-21T03:22:05.417Z,17.37
2019-02-21T03:24:35.748Z,18.57
2019-02-21T03:27:06.123Z,19.07
2019-02-21T03:29:36.461Z,18.60
2019-02-21T03:32:06.830Z,19.80
2019-02-21T03:34:56.518Z,18.02
2019-02-21T03:37:26.896Z,19.00
2019-02-21T03:39:57.240Z,17.82
2019-02-21T03:42:27.599Z,20.20
2019-02-21T03:44:57.949Z,20.20
2019-02-21T03:47:28.334Z,18.75
2019-02-21T03:49:58.669Z,18.80
2019-02-21T03:52:29.030Z,19.07
2019-02-21T03:54:59.383Z,19.10
2019-02-21T03:57:29.730Z,19.10
2019-02-21T04:00:00.383Z,20.25
2019-02-21T04:02:30.767Z,18.62
2019-02-21T04:05:01.206Z,18.42
2019-02-21T04:07:32.522Z,19.30
2019-02-21T04:10:03.243Z,18.75
2019-02-21T04:12:33.607Z,18.70
2019-02-21T04:15:05.968Z,19.42
2019-02-21T04:17:36.341Z,19.70
2019-02-21T04:20:09.051Z,18.00
2019-02-21T04:22:39.423Z,19.73
2019-02-21T04:25:09.856Z,20.08
2019-02-21T04:27:40.216Z,18.60
2019-02-21T04:30:10.575Z,19.67
2019-02-21T04:32:40.946Z,20.57
2019-02-21T04:35:11.305Z,17.98
2019-02-21T04:37:41.690Z,19.10
2019-02-21T04:40:12.039Z,17.65
2019-02-21T04:42:42.405Z,19.15
2019-02-21T04:45:12.761Z,19.23
2019-02-21T04:47:43.116Z,18.62
2019-02-21T04:50:14.877Z,19.25
2019-02-21T04:52:45.232Z,18.48
2019-02-21T04:55:15.606Z,20.48
2019-02-21T04:57:45.960Z,19.20
2019-02-21T05:00:16.367Z,19.37
2019-02-21T05:02:46.723Z,18.80
2019-02-21T05:05:17.068Z,18.82
2019-02-21T05:07:47.455Z,19.40
2019-02-21T05:10:17.766Z,19.48
2019-02-21T05:12:48.139Z,19.27
2019-02-21T05:15:18.489Z,18.50
2019-02-21T05:17:48.863Z,19.25
2019-02-21T05:20:19.206Z,20.35
2019-02-21T05:22:49.569Z,19.12
2019-02-21T05:25:19.916Z,19.45
2019-02-21T05:27:51.864Z,19.02
2019-02-21T05:30:23.876Z,18.98
2019-02-21T05:32:58.803Z,18.10
2019-02-21T05:35:31.423Z,18.92
2019-02-21T05:38:16.755Z,19.17
2019-02-21T05:44:03.511Z,17.60
2019-02-21T05:46:48.568Z,20.52
2019-02-21T05:49:36.007Z,20.68
2019-02-21T05:52:22.826Z,19.12
2019-02-21T05:55:06.711Z,20.95
2019-02-21T05:57:38.705Z,19.57
2019-02-21T06:00:11.900Z,20.65
2019-02-21T06:02:53.786Z,18.75
2019-02-21T06:05:50.859Z,20.72
2019-02-21T06:08:31.835Z,21.10
2019-02-21T06:11:19.910Z,18.90
2019-02-21T06:13:51.919Z,21.48
2019-02-21T06:16:24.024Z,22.37
2019-02-21T06:18:56.042Z,21.37
2019-02-21T06:21:30.751Z,21.27
2019-02-21T06:24:02.753Z,21.45
2019-02-21T06:26:34.734Z,21.52
2019-02-21T06:29:09.966Z,21.00
2019-02-21T06:31:40.507Z,23.22
2019-02-21T06:34:10.878Z,21.05
2019-02-21T06:36:41.205Z,20.97
2019-02-21T06:39:11.542Z,22.00
2019-02-21T06:41:42.775Z,22.50
2019-02-21T06:44:13.474Z,21.75
2019-02-21T06:46:43.831Z,21.33
2019-02-21T06:49:14.169Z,21.75
2019-02-21T06:51:44.512Z,20.57
2019-02-21T06:54:14.855Z,21.25
2019-02-21T06:56:45.197Z,21.50
2019-02-21T06:59:15.553Z,20.02
2019-02-21T07:01:45.879Z,22.75
2019-02-21T07:04:17.292Z,23.10
2019-02-21T07:06:47.630Z,23.38
2019-02-21T07:09:17.972Z,21.27
2019-02-21T07:11:48.306Z,23.25
2019-02-21T07:14:18.668Z,22.98
2019-02-21T07:16:49.143Z,20.97
2019-02-21T07:19:19.487Z,22.73
2019-02-21T07:21:49.830Z,21.80
2019-02-21T07:24:20.170Z,21.62
2019-02-21T07:26:50.512Z,23.50
2019-02-21T07:29:20.860Z,23.52
2019-02-21T07:31:51.198Z,22.02
2019-02-21T07:34:21.537Z,20.70
2019-02-21T07:36:51.871Z,22.25
2019-02-21T07:39:22.225Z,21.15
2019-02-21T07:41:52.577Z,22.20
2019-02-21T07:44:22.931Z,22.73
2019-02-21T07:46:53.555Z,21.85
2019-02-21T07:49:25.688Z,22.52
2019-02-21T07:51:55.941Z,20.30
2019-02-21T07:54:26.285Z,21.02
2019-02-21T07:56:56.619Z,19.87
2019-02-21T07:59:27.335Z,22.67
2019-02-21T08:01:57.672Z,20.32
2019-02-21T08:04:28.018Z,21.50
2019-02-21T08:06:58.452Z,20.40
2019-02-21T08:09:29.644Z,21.25
2019-02-21T08:12:02.769Z,21.70
2019-02-21T08:14:33.944Z,20.05
2019-02-21T08:17:04.297Z,20.77
2019-02-21T08:19:34.661Z,21.00
2019-02-21T08:22:05.045Z,21.68
2019-02-21T08:24:35.410Z,21.77
2019-02-21T08:27:05.774Z,21.07
2019-02-21T08:29:36.140Z,21.15
2019-02-21T08:32:06.589Z,21.02
2019-02-21T08:34:38.583Z,20.90
2019-02-21T08:37:08.968Z,20.08
2019-02-21T08:39:39.336Z,20.80
2019-02-21T08:42:09.702Z,20.85
2019-02-21T08:44:40.150Z,20.40
2019-02-21T08:47:10.502Z,19.57
2019-02-21T08:49:40.897Z,21.70
2019-02-21T08:52:11.265Z,19.65
2019-02-21T08:54:41.615Z,21.30
2019-02-21T08:57:11.986Z,20.65
2019-02-21T08:59:42.650Z,20.85
2019-02-21T09:02:13.013Z,18.85
2019-02-21T09:04:43.448Z,20.43
2019-02-21T09:07:13.827Z,19.32
2019-02-21T09:09:44.238Z,19.42
2019-02-21T09:12:14.619Z,18.95
2019-02-21T09:14:45.065Z,19.00
2019-02-21T09:17:15.407Z,20.50
2019-02-21T09:19:45.784Z,20.17
2019-02-21T09:22:16.121Z,19.70
2019-02-21T09:24:46.501Z,19.87
2019-02-21T09:27:16.864Z,21.15
2019-02-21T09:29:47.267Z,20.02
2019-02-21T09:32:17.668Z,18.48
2019-02-21T09:34:50.300Z,18.85
2019-02-21T09:37:20.150Z,19.35
2019-02-21T09:39:50.539Z,21.07
2019-02-21T09:42:20.900Z,22.85
2019-02-21T09:44:51.369Z,18.92
2019-02-21T09:47:22.793Z,21.57
2019-02-21T09:49:53.184Z,20.30
2019-02-21T09:52:23.561Z,20.55
2019-02-21T09:54:53.912Z,19.07
2019-02-21T09:57:24.270Z,19.32
2019-02-21T09:59:54.659Z,19.32
2019-02-21T10:02:25.032Z,18.95
2019-02-21T10:05:04.495Z,18.35
2019-02-21T10:07:27.449Z,20.35
2019-02-21T10:09:57.835Z,18.87
2019-02-21T10:12:28.191Z,20.62
2019-02-21T10:14:58.561Z,21.00
2019-02-21T10:17:28.932Z,20.25
2019-02-21T10:20:04.036Z,21.62
2019-02-21T10:22:31.374Z,21.05
2019-02-21T10:25:01.744Z,23.38
2019-02-21T10:27:32.100Z,20.70
2019-02-21T10:30:02.486Z,21.73
2019-02-21T10:32:34.289Z,21.62
2019-02-21T10:35:06.259Z,21.82
2019-02-21T10:37:36.638Z,19.42
2019-02-21T10:40:10.681Z,19.55
2019-02-21T10:42:41.073Z,19.90
2019-02-21T10:45:14.828Z,20.57
2019-02-21T10:47:45.178Z,20.23
2019-02-21T10:50:18.459Z,21.75
2019-02-21T10:52:50.100Z,20.05
2019-02-21T10:55:20.602Z,19.87
2019-02-21T10:57:51.044Z,22.30
2019-02-21T11:00:30.321Z,19.77
2019-02-21T11:03:00.860Z,21.17
2019-02-21T11:05:31.219Z,21.15
2019-02-21T11:08:01.601Z,22.02
2019-02-21T11:10:32.371Z,22.82
2019-02-21T11:13:02.798Z,20.20
2019-02-21T11:15:33.149Z,22.35
2019-02-21T11:18:03.496Z,22.80
2019-02-21T11:20:33.870Z,22.45
2019-02-21T11:23:06.475Z,22.40
2019-02-21T11:25:36.313Z,23.42
2019-02-21T11:28:06.655Z,20.77
2019-02-21T11:30:37.081Z,20.82
2019-02-21T11:33:07.508Z,20.25
2019-02-21T11:35:37.858Z,20.72
2019-02-21T11:38:08.220Z,19.17
2019-02-21T11:40:38.656Z,21.30
2019-02-21T11:43:09.112Z,21.85
2019-02-21T11:45:39.425Z,20.55
2019-02-21T11:48:10.154Z,20.65
2019-02-21T11:50:40.504Z,21.60
2019-02-21T11:53:10.851Z,22.15
2019-02-21T11:55:41.215Z,18.77
2019-02-21T11:58:11.587Z,20.77
2019-02-21T12:00:41.941Z,20.27
2019-02-21T12:03:12.304Z,18.25
2019-02-21T12:05:42.661Z,19.27
2019-02-21T12:08:13.028Z,19.62
2019-02-21T12:10:43.388Z,18.45
2019-02-21T12:13:13.761Z,18.70
2019-02-21T12:15:44.100Z,17.45
2019-02-21T12:18:14.477Z,17.48
2019-02-21T12:20:44.822Z,19.75
2019-02-21T12:23:17.683Z,18.57
2019-02-21T12:25:47.246Z,17.87
2019-02-21T12:28:17.599Z,17.75
2019-02-21T12:30:47.977Z,16.57
2019-02-21T12:33:18.341Z,17.05
2019-02-21T12:35:48.709Z,18.75
2019-02-21T12:38:19.094Z,17.40
2019-02-21T12:40:49.454Z,16.87
2019-02-21T12:43:19.833Z,18.85
2019-02-21T12:45:52.640Z,17.40
2019-02-21T12:48:22.310Z,16.82
2019-02-21T12:50:52.846Z,17.55
2019-02-21T12:53:23.252Z,17.52
2019-02-21T12:55:53.623Z,19.60
2019-02-21T12:58:23.981Z,18.57
2019-02-21T13:00:54.349Z,18.55
2019-02-21T13:03:24.708Z,18.65
2019-02-21T13:05:55.080Z,18.55
2019-02-21T13:08:28.346Z,20.40
2019-02-21T13:10:58.705Z,20.30
2019-02-21T13:13:29.089Z,17.60
2019-02-21T13:15:59.436Z,18.92
2019-02-21T13:18:29.797Z,18.95
2019-02-21T13:21:00.137Z,18.55
2019-02-21T13:23:30.487Z,18.57
2019-02-21T13:26:00.835Z,17.95
2019-02-21T13:28:31.195Z,18.40
2019-02-21T13:31:01.541Z,16.85
2019-02-21T13:33:31.896Z,19.27
2019-02-21T13:36:02.252Z,17.07
2019-02-21T13:38:32.596Z,17.37
2019-02-21T13:41:02.951Z,16.67
2019-02-21T13:43:33.367Z,15.95
2019-02-21T13:46:04.815Z,15.50
2019-02-21T13:48:36.102Z,15.50
2019-02-21T13:51:06.445Z,14.20
2019-02-21T13:53:36.792Z,13.45
2019-02-21T13:56:07.149Z,14.25
2019-02-21T13:58:37.518Z,14.07
2019-02-21T14:01:07.843Z,15.25
2019-02-21T14:03:38.195Z,13.62
2019-02-21T14:06:08.539Z,14.68
2019-02-21T14:08:38.900Z,15.08
2019-02-21T14:11:09.249Z,13.90
2019-02-21T14:13:40.347Z,14.35
2019-02-21T14:16:10.708Z,15.38
2019-02-21T14:18:41.161Z,14.03
2019-02-21T14:21:11.506Z,11.90
2019-02-21T14:23:41.880Z,13.22
2019-02-21T14:26:12.255Z,13.38
2019-02-21T14:28:42.635Z,12.43
2019-02-21T14:31:12.995Z,12.78
2019-02-21T14:33:43.364Z,13.55
2019-02-21T14:36:16.813Z,13.70
2019-02-21T14:38:45.787Z,13.43
2019-02-21T14:41:16.142Z,13.75
2019-02-21T14:43:46.572Z,12.35
2019-02-21T14:46:16.913Z,16.17
2019-02-21T14:48:47.269Z,14.83
2019-02-21T14:51:17.628Z,13.25
2019-02-21T14:53:47.983Z,14.50
2019-02-21T14:56:20.089Z,14.33
2019-02-21T14:58:50.568Z,15.65
2019-02-21T15:01:20.916Z,14.10
2019-02-21T15:03:51.268Z,16.07
2019-02-21T15:06:27.160Z,15.88
2019-02-21T15:08:53.930Z,17.12
2019-02-21T15:11:24.279Z,16.48
2019-02-21T15:13:54.632Z,18.42
2019-02-21T15:16:24.979Z,19.00
2019-02-21T15:18:55.498Z,17.90
2019-02-21T15:21:25.865Z,18.05
2019-02-21T15:23:56.227Z,18.55
2019-02-21T15:26:26.599Z,19.07
2019-02-21T15:28:56.979Z,19.02
2019-02-21T15:31:27.315Z,19.12
2019-02-21T15:33:57.675Z,17.20
2019-02-21T15:36:37.851Z,16.12
2019-02-21T15:39:00.217Z,19.45
2019-02-21T15:41:30.647Z,18.98
2019-02-21T15:44:01.012Z,18.82
2019-02-21T15:46:31.336Z,17.02
2019-02-21T15:49:01.733Z,17.73
2019-02-21T15:51:33.585Z,15.58
2019-02-21T15:54:05.497Z,16.17
2019-02-21T15:56:35.865Z,15.60
2019-02-21T15:59:07.889Z,16.52
2019-02-21T16:01:47.081Z,15.40
2019-02-21T16:04:10.321Z,13.90
2019-02-21T16:06:50.961Z,14.98
2019-02-21T16:09:16.310Z,13.78
2019-02-21T16:11:44.815Z,14.58
2019-02-21T16:14:15.247Z,14.15
2019-02-21T16:16:45.599Z,14.93
2019-02-21T16:19:16.096Z,14.25
2019-02-21T16:21:46.449Z,13.83
2019-02-21T16:24:16.849Z,13.98
2019-02-21T16:26:47.196Z,14.45
2019-02-21T16:29:17.567Z,14.68
2019-02-21T16:31:47.927Z,14.18
2019-02-21T16:34:18.322Z,14.87
2019-02-21T16:36:48.672Z,13.83
2019-02-21T16:39:19.052Z,13.62
2019-02-21T16:41:49.463Z,14.58
2019-02-21T16:44:19.769Z,14.95
2019-02-21T16:46:50.116Z,15.30
2019-02-21T16:49:20.470Z,14.83
2019-02-21T16:51:50.839Z,15.38
2019-02-21T16:54:21.196Z,15.93
2019-02-21T16:56:51.583Z,14.98
2019-02-21T16:59:21.924Z,14.05
2019-02-21T17:01:52.362Z,17.10
2019-02-21T17:04:28.236Z,15.75
2019-02-21T17:06:58.596Z,15.03
2019-02-21T17:09:28.954Z,15.85
2019-02-21T17:12:01.063Z,16.97
2019-02-21T17:14:31.348Z,16.37
2019-02-21T17:17:01.691Z,14.98
2019-02-21T17:19:34.967Z,16.23
2019-02-21T17:22:05.313Z,16.93
2019-02-21T17:24:35.666Z,15.03
2019-02-21T17:27:06.007Z,17.35
2019-02-21T17:29:36.379Z,16.67
2019-02-21T17:32:06.745Z,18.00
2019-02-21T17:34:37.172Z,17.92
2019-02-21T17:37:07.534Z,17.75
2019-02-21T17:39:38.105Z,17.30
2019-02-21T17:42:08.456Z,18.20
2019-02-21T17:44:38.807Z,16.82
2019-02-21T17:47:09.154Z,18.35
2019-02-21T17:49:39.495Z,18.62
2019-02-21T17:52:09.859Z,18.37
2019-02-21T17:54:44.074Z,19.20
2019-02-21T17:57:14.423Z,19.82
2019-02-21T17:59:44.798Z,20.60
2019-02-21T18:02:15.159Z,19.07
2019-02-21T18:04:45.508Z,21.62
2019-02-21T18:07:15.851Z,22.40
2019-02-21T18:09:46.449Z,22.32
2019-02-21T18:12:16.803Z,21.33
2019-02-21T18:14:47.141Z,21.60
2019-02-21T18:17:17.550Z,25.35
2019-02-21T18:19:47.914Z,21.87
2019-02-21T18:22:18.255Z,22.30
2019-02-21T18:24:48.649Z,23.05
2019-02-21T18:27:18.969Z,19.80
2019-02-21T18:29:49.337Z,24.45
2019-02-21T18:32:28.810Z,24.02
2019-02-21T18:34:59.180Z,22.82
2019-02-21T18:37:29.529Z,24.55
2019-02-21T18:39:59.916Z,24.52
2019-02-21T18:42:30.262Z,23.92
2019-02-21T18:45:00.913Z,23.12
2019-02-21T18:47:32.803Z,25.57
2019-02-21T18:50:03.149Z,24.35
2019-02-21T18:52:33.506Z,22.65
2019-02-21T18:55:04.591Z,24.95
2019-02-21T18:57:34.946Z,25.35
2019-02-21T19:00:16.390Z,26.75
2019-02-21T19:02:46.730Z,28.20
2019-02-21T19:05:17.150Z,26.57
2019-02-21T19:07:55.828Z,22.75
2019-02-21T19:10:21.308Z,24.32
2019-02-21T19:12:51.764Z,24.90
2019-02-21T19:15:41.612Z,27.65
2019-02-21T19:18:12.032Z,25.55
2019-02-21T19:20:42.380Z,24.02
2019-02-21T19:23:12.726Z,23.47
2019-02-21T19:25:43.134Z,25.57
2019-02-21T19:28:13.560Z,23.20
2019-02-21T19:31:00.545Z,24.10
2019-02-21T19:33:30.881Z,22.62
2019-02-21T19:36:02.202Z,23.00
2019-02-21T19:38:32.607Z,23.18
2019-02-21T19:41:02.953Z,24.30
2019-02-21T19:43:33.364Z,22.75
2019-02-21T19:46:03.773Z,22.95
2019-02-21T19:48:34.112Z,24.12
2019-02-21T19:51:04.460Z,23.18
2019-02-21T19:53:34.804Z,22.95
2019-02-21T19:56:05.213Z,25.65
2019-02-21T19:58:35.574Z,22.70
2019-02-21T20:01:06.264Z,23.75
2019-02-21T20:03:37.309Z,20.95
2019-02-21T20:06:20.941Z,24.00
2019-02-21T20:08:51.268Z,23.75
2019-02-21T20:11:21.620Z,23.75
2019-02-21T20:13:51.972Z,23.05
2019-02-21T20:16:22.323Z,25.20
2019-02-21T20:18:52.668Z,23.60
2019-02-21T20:21:23.095Z,23.87
2019-02-21T20:23:53.452Z,22.27
2019-02-21T20:26:23.808Z,22.67
2019-02-21T20:28:55.164Z,24.45
2019-02-21T20:31:25.729Z,21.82
2019-02-21T20:33:56.128Z,22.07
2019-02-21T20:36:27.586Z,21.33
2019-02-21T20:38:57.937Z,22.65
2019-02-21T20:41:28.286Z,23.98
2019-02-21T20:43:58.701Z,24.43
2019-02-21T20:46:29.051Z,22.50
2019-02-21T20:49:03.466Z,21.77
2019-02-21T20:51:33.905Z,19.37
2019-02-21T20:54:04.265Z,22.73
2019-02-21T20:56:34.680Z,23.47
2019-02-21T20:59:05.431Z,23.07
2019-02-21T21:01:36.057Z,21.75
2019-02-21T21:04:06.573Z,22.48
2019-02-21T21:06:38.891Z,23.85
2019-02-21T21:09:09.682Z,23.40
2019-02-21T21:11:40.100Z,23.52
2019-02-21T21:14:10.675Z,23.60
2019-02-21T21:16:41.041Z,23.07
2019-02-21T21:19:20.364Z,21.02
2019-02-21T21:21:50.725Z,21.85
2019-02-21T21:24:21.080Z,22.22
2019-02-21T21:26:51.791Z,22.27
2019-02-21T21:29:22.156Z,21.25
2019-02-21T21:31:53.563Z,22.77
2019-02-21T21:34:25.190Z,21.48
2019-02-21T21:36:55.530Z,22.55
2019-02-21T21:39:26.955Z,21.73
2019-02-21T21:41:57.310Z,19.00
2019-02-21T21:44:27.665Z,20.62
2019-02-21T21:46:58.281Z,21.30
2019-02-21T21:49:28.638Z,21.55
2019-02-21T21:51:58.987Z,20.90
2019-02-21T21:54:29.394Z,22.58
2019-02-21T21:57:01.467Z,21.45
2019-02-21T21:59:32.817Z,20.52
2019-02-21T22:02:03.175Z,21.55
2019-02-21T22:04:33.524Z,21.17
2019-02-21T22:07:03.987Z,21.02
2019-02-21T22:09:34.339Z,21.37
2019-02-21T22:12:04.768Z,18.98
2019-02-21T22:14:35.120Z,19.48
2019-02-21T22:17:05.479Z,18.20
2019-02-21T22:19:35.823Z,18.98
2019-02-21T22:22:06.191Z,19.85
2019-02-21T22:24:36.538Z,19.82
2019-02-21T22:27:06.901Z,19.23
2019-02-21T22:29:37.241Z,18.35
2019-02-21T22:32:07.607Z,19.42
2019-02-21T22:34:37.954Z,19.87
2019-02-21T22:37:08.309Z,18.27
2019-02-21T22:39:38.653Z,17.92
2019-02-21T22:42:09.014Z,18.75
2019-02-21T22:44:39.360Z,18.25
2019-02-21T22:47:09.735Z,18.15
2019-02-21T22:49:40.088Z,19.45
2019-02-21T22:52:10.443Z,20.05
2019-02-21T22:54:40.784Z,20.75
2019-02-21T22:57:11.296Z,20.35
2019-02-21T22:59:41.646Z,20.90
2019-02-21T23:02:12.252Z,20.30
2019-02-21T23:04:53.575Z,17.95
2019-02-21T23:07:31.122Z,19.10
2019-02-21T23:10:01.474Z,20.15
2019-02-21T23:12:33.438Z,19.50
2019-02-21T23:15:04.050Z,20.82
2019-02-21T23:17:34.675Z,20.80
2019-02-21T23:20:06.080Z,20.35
2019-02-21T23:22:36.382Z,19.67
2019-02-21T23:25:07.663Z,22.15
2019-02-21T23:27:38.019Z,19.30
2019-02-21T23:30:10.573Z,20.48
2019-02-21T23:32:40.933Z,21.05
2019-02-21T23:35:13.192Z,21.12
2019-02-21T23:37:43.552Z,20.10
2019-02-21T23:40:13.898Z,21.12
2019-02-21T23:42:44.262Z,19.30
2019-02-21T23:45:14.607Z,21.37
2019-02-21T23:47:49.664Z,19.27
2019-02-21T23:50:17.019Z,19.57
2019-02-21T23:52:47.378Z,20.70
2019-02-21T23:55:17.723Z,21.02
2019-02-21T23:57:48.151Z,20.77
